Time;durP1;ratioP1;P1;durP2;ratioP2;P2;SDS_P1;SDS_P2;PMS_P1;PMS_P2;Temp;Humidity;BMP_temperature;BMP_pressure;BME280_temperature;BME280_humidity;BME280_pressure;Samples;Min_cycle;Max_cycle;Signal;HPM_P1;HPM_P2
2023/01/24 00:00:51;;;;;;;20.30;14.93;;;4.20;99.90;;;;;;5088965;28;20087;-63
2023/01/24 00:03:16;;;;;;;22.80;15.48;;;4.20;99.90;;;;;;5086991;28;20012;-63
2023/01/24 00:05:44;;;;;;;21.58;14.35;;;4.20;99.90;;;;;;5084429;28;20028;-63
2023/01/24 00:08:15;;;;;;;21.90;15.18;;;4.20;99.90;;;;;;5099985;28;20043;-63
2023/01/24 00:10:41;;;;;;;23.05;15.55;;;4.20;99.90;;;;;;5098642;28;20020;-63
2023/01/24 00:13:09;;;;;;;19.65;14.30;;;4.20;99.90;;;;;;5093605;28;20020;-63
2023/01/24 00:15:35;;;;;;;23.83;16.15;;;4.20;99.90;;;;;;5094586;28;20143;-63
2023/01/24 00:18:01;;;;;;;21.60;14.88;;;4.20;99.90;;;;;;5098377;28;20103;-63
2023/01/24 00:20:26;;;;;;;21.27;15.73;;;4.10;99.90;;;;;;5090441;27;20032;-63
2023/01/24 00:22:52;;;;;;;25.75;16.40;;;4.10;99.90;;;;;;5074928;28;20457;-63
2023/01/24 00:25:17;;;;;;;22.52;15.88;;;4.10;99.90;;;;;;5093537;28;20461;-63
2023/01/24 00:27:43;;;;;;;24.05;16.40;;;4.10;99.90;;;;;;5096133;28;20138;-63
2023/01/24 00:30:09;;;;;;;20.85;15.32;;;4.10;99.90;;;;;;5072285;28;20123;-63
2023/01/24 00:32:35;;;;;;;22.77;15.55;;;4.10;99.90;;;;;;5082102;28;20024;-63
2023/01/24 00:35:00;;;;;;;22.42;16.42;;;4.10;99.90;;;;;;5091353;28;20445;-63
2023/01/24 00:37:26;;;;;;;22.50;16.02;;;4.10;99.90;;;;;;5093249;28;20032;-63
2023/01/24 00:39:52;;;;;;;22.08;15.30;;;4.10;99.90;;;;;;5090728;28;20024;-63
2023/01/24 00:42:17;;;;;;;22.35;15.38;;;4.10;99.90;;;;;;5094980;28;20096;-63
2023/01/24 00:44:43;;;;;;;21.85;14.25;;;4.10;99.90;;;;;;5090213;28;20043;-63
2023/01/24 00:47:08;;;;;;;22.70;15.35;;;4.10;99.90;;;;;;5089519;28;20123;-63
2023/01/24 00:49:34;;;;;;;20.60;14.55;;;4.00;99.90;;;;;;5093417;28;20060;-63
2023/01/24 00:51:59;;;;;;;21.02;15.00;;;4.10;99.90;;;;;;5094196;28;20118;-63
2023/01/24 00:54:25;;;;;;;20.38;14.48;;;4.10;99.90;;;;;;5089364;28;20465;-63
2023/01/24 00:56:51;;;;;;;20.55;13.68;;;4.10;99.90;;;;;;5098141;28;20034;-63
2023/01/24 00:59:16;;;;;;;19.60;12.25;;;4.10;99.90;;;;;;5091302;28;20024;-63
2023/01/24 01:01:42;;;;;;;20.45;13.90;;;4.10;99.90;;;;;;5094609;28;20105;-64
2023/01/24 01:04:08;;;;;;;20.42;13.63;;;4.10;99.90;;;;;;5074337;28;20527;-63
2023/01/24 01:06:34;;;;;;;20.20;13.57;;;4.10;99.90;;;;;;5098953;28;20024;-63
2023/01/24 01:08:59;;;;;;;18.42;13.27;;;4.10;99.90;;;;;;5097133;28;20027;-63
2023/01/24 01:11:25;;;;;;;19.98;14.35;;;4.10;99.90;;;;;;5091378;28;20078;-63
2023/01/24 01:13:54;;;;;;;18.23;13.10;;;4.00;99.90;;;;;;5071681;28;20111;-63
2023/01/24 01:16:20;;;;;;;20.40;13.48;;;4.00;99.90;;;;;;5078653;28;20409;-64
2023/01/24 01:18:47;;;;;;;17.73;12.00;;;4.00;99.90;;;;;;5114346;27;20185;-63
2023/01/24 01:21:18;;;;;;;18.33;12.73;;;4.00;99.90;;;;;;5076863;28;20043;-63
2023/01/24 01:23:44;;;;;;;18.75;12.82;;;4.00;99.90;;;;;;5081464;28;20024;-63
2023/01/24 01:26:15;;;;;;;18.58;13.27;;;4.00;99.90;;;;;;5091687;28;20016;-63
2023/01/24 01:28:41;;;;;;;18.27;13.70;;;4.00;99.90;;;;;;5082285;28;20034;-63
2023/01/24 01:31:07;;;;;;;21.23;13.73;;;4.00;99.90;;;;;;5097209;28;20036;-63
2023/01/24 01:33:32;;;;;;;18.23;13.48;;;4.00;99.90;;;;;;5100797;27;20023;-63
2023/01/24 01:35:58;;;;;;;20.05;13.65;;;4.00;99.90;;;;;;5096625;27;20161;-63
2023/01/24 01:38:25;;;;;;;20.55;13.27;;;4.00;99.90;;;;;;5091946;28;20373;-63
2023/01/24 01:40:50;;;;;;;20.90;13.38;;;4.00;99.90;;;;;;5089365;28;20084;-63
2023/01/24 01:43:18;;;;;;;18.85;12.95;;;4.00;99.90;;;;;;5090238;28;20428;-63
2023/01/24 01:45:53;;;;;;;20.65;13.30;;;4.00;99.90;;;;;;5087289;28;20488;-63
2023/01/24 01:48:35;;;;;;;21.02;13.45;;;4.00;99.90;;;;;;5088936;28;20070;-63
2023/01/24 01:51:20;;;;;;;19.05;13.20;;;4.00;99.90;;;;;;5072798;28;20429;-63
2023/01/24 01:53:59;;;;;;;21.42;14.57;;;4.00;99.90;;;;;;5088177;28;20036;-63
2023/01/24 01:56:33;;;;;;;20.83;14.15;;;4.00;99.90;;;;;;5092049;28;20020;-64
2023/01/24 01:59:05;;;;;;;20.20;13.40;;;4.00;99.90;;;;;;5089533;28;20460;-63
2023/01/24 02:01:32;;;;;;;21.30;13.93;;;4.00;99.90;;;;;;5088300;28;20069;-64
2023/01/24 02:04:08;;;;;;;21.67;13.07;;;3.90;99.90;;;;;;5091648;28;20098;-63
2023/01/24 02:07:14;;;;;;;20.85;13.85;;;4.00;99.90;;;;;;5095733;28;20384;-63
2023/01/24 02:09:46;;;;;;;20.45;13.73;;;4.00;99.90;;;;;;5094641;28;20023;-63
2023/01/24 02:12:22;;;;;;;20.58;13.93;;;3.90;99.90;;;;;;5070118;28;20056;-63
2023/01/24 02:17:40;;;;;;;22.90;14.77;;;3.90;99.90;;;;;;5088235;28;20035;-63
2023/01/24 02:20:36;;;;;;;23.95;16.75;;;3.90;99.90;;;;;;5093897;28;20345;-63
2023/01/24 02:23:24;;;;;;;23.85;15.23;;;3.90;99.90;;;;;;5075879;28;20031;-63
2023/01/24 02:26:09;;;;;;;22.75;15.25;;;3.90;99.90;;;;;;5090776;28;20358;-63
2023/01/24 02:28:36;;;;;;;23.77;16.65;;;3.90;99.90;;;;;;5090821;28;20024;-63
2023/01/24 02:31:03;;;;;;;22.73;15.45;;;3.80;99.90;;;;;;5094068;28;20034;-63
2023/01/24 02:33:30;;;;;;;25.35;17.00;;;3.80;99.90;;;;;;5096250;28;20066;-63
2023/01/24 02:36:11;;;;;;;20.73;14.73;;;3.90;99.90;;;;;;5069779;28;20122;-64
2023/01/24 02:38:38;;;;;;;25.58;16.85;;;3.90;99.90;;;;;;5087636;28;20032;-63
2023/01/24 02:41:07;;;;;;;21.48;15.70;;;3.80;99.90;;;;;;5090860;28;20030;-63
2023/01/24 02:43:38;;;;;;;24.17;16.00;;;3.80;99.90;;;;;;5072324;28;20063;-63
2023/01/24 02:46:03;;;;;;;21.13;14.10;;;3.80;99.90;;;;;;5076164;28;20445;-63
2023/01/24 02:48:29;;;;;;;25.92;16.30;;;3.80;99.90;;;;;;5112143;27;20060;-63
2023/01/24 02:53:39;;;;;;;26.33;16.75;;;3.80;99.90;;;;;;5087951;28;20081;-63
2023/01/24 02:58:52;;;;;;;21.80;14.48;;;3.80;99.90;;;;;;5089831;28;20062;-63
2023/01/24 03:01:19;;;;;;;24.80;15.55;;;3.80;99.90;;;;;;5087799;28;20055;-63
2023/01/24 03:03:45;;;;;;;20.42;14.52;;;3.80;99.90;;;;;;5075604;28;20023;-63
2023/01/24 03:06:12;;;;;;;21.67;15.00;;;3.80;99.90;;;;;;5086880;28;20016;-63
2023/01/24 03:08:39;;;;;;;25.73;16.77;;;3.90;99.90;;;;;;5091382;28;20048;-63
2023/01/24 03:11:05;;;;;;;21.05;15.10;;;3.90;99.90;;;;;;5093606;28;20032;-63
2023/01/24 03:35:28;;;;;;;22.55;15.52;;;3.60;99.90;;;;;;5089399;28;20388;-63
2023/01/24 03:40:39;;;;;;;21.35;15.05;;;3.60;99.90;;;;;;5098246;28;20109;-63
2023/01/24 03:43:04;;;;;;;23.13;14.93;;;3.60;99.90;;;;;;5091688;28;20707;-64
2023/01/24 03:45:33;;;;;;;18.50;12.93;;;3.60;99.90;;;;;;5096476;28;20099;-63
2023/01/24 03:48:01;;;;;;;18.50;12.60;;;3.70;99.90;;;;;;5100842;27;20076;-63
2023/01/24 03:53:13;;;;;;;21.13;14.75;;;3.70;99.90;;;;;;5111086;27;20043;-63
2023/01/24 03:55:39;;;;;;;24.42;16.08;;;3.70;99.90;;;;;;5101333;28;20023;-63
2023/01/24 03:58:07;;;;;;;21.75;15.10;;;3.60;99.90;;;;;;5099028;28;20106;-63
2023/01/24 04:00:34;;;;;;;23.77;15.38;;;3.60;99.90;;;;;;5116780;27;20781;-63
2023/01/24 04:03:00;;;;;;;26.27;17.23;;;3.60;99.90;;;;;;5075315;28;20031;-63
2023/01/24 04:05:26;;;;;;;22.95;15.75;;;3.60;99.90;;;;;;5096139;28;20031;-63
2023/01/24 04:07:53;;;;;;;21.50;14.65;;;3.60;99.90;;;;;;5097155;28;20108;-63
2023/01/24 04:10:19;;;;;;;23.55;16.23;;;3.60;99.90;;;;;;5094088;28;20470;-63
2023/01/24 04:12:44;;;;;;;24.17;16.02;;;3.60;99.90;;;;;;5082857;28;20487;-63
2023/01/24 04:15:21;;;;;;;23.48;15.27;;;3.60;99.90;;;;;;5093634;28;20051;-63
2023/01/24 04:17:47;;;;;;;19.92;13.80;;;3.60;99.90;;;;;;5076174;28;20127;-63
2023/01/24 04:20:14;;;;;;;20.60;14.52;;;3.60;99.90;;;;;;5099148;27;20102;-63
2023/01/24 04:22:40;;;;;;;23.30;15.43;;;3.60;99.90;;;;;;5095016;27;20054;-63
2023/01/24 04:25:06;;;;;;;24.00;16.80;;;3.60;99.90;;;;;;5096118;28;20073;-63
2023/01/24 04:27:31;;;;;;;22.80;15.68;;;3.60;99.90;;;;;;5095374;28;20058;-63
2023/01/24 04:29:57;;;;;;;20.23;14.43;;;3.60;99.90;;;;;;5092668;28;20023;-63
2023/01/24 04:32:22;;;;;;;21.05;14.10;;;3.60;99.90;;;;;;5116303;27;20046;-63
2023/01/24 04:34:48;;;;;;;20.33;13.65;;;3.60;99.90;;;;;;5095513;28;20028;-63
2023/01/24 04:37:13;;;;;;;21.40;15.00;;;3.60;99.90;;;;;;5092995;28;20016;-63
2023/01/24 04:39:39;;;;;;;20.85;14.27;;;3.60;99.90;;;;;;5096669;28;20468;-63
2023/01/24 04:42:05;;;;;;;18.45;13.60;;;3.60;99.90;;;;;;5089815;28;20024;-63
2023/01/24 04:44:31;;;;;;;23.77;15.95;;;3.70;99.90;;;;;;5076729;28;20428;-63
2023/01/24 04:46:57;;;;;;;22.95;15.68;;;3.70;99.90;;;;;;5097193;28;20040;-63
2023/01/24 04:49:23;;;;;;;19.75;14.18;;;3.70;99.90;;;;;;5071324;28;20063;-63
2023/01/24 04:51:49;;;;;;;21.98;15.05;;;3.70;99.90;;;;;;5089527;28;20445;-63
2023/01/24 04:54:15;;;;;;;23.48;15.82;;;3.70;99.90;;;;;;5092197;28;20015;-63
2023/01/24 04:56:41;;;;;;;25.45;16.73;;;3.60;99.90;;;;;;5083393;28;20530;-63
2023/01/24 04:59:06;;;;;;;24.27;16.05;;;3.60;99.90;;;;;;5091348;28;20484;-63
2023/01/24 05:01:32;;;;;;;24.27;15.98;;;3.60;99.90;;;;;;5092927;28;20028;-63
2023/01/24 05:04:00;;;;;;;24.73;16.70;;;3.60;99.90;;;;;;5071441;28;20023;-63
2023/01/24 05:06:27;;;;;;;22.80;15.82;;;3.50;99.90;;;;;;5095573;28;20016;-63
2023/01/24 05:08:54;;;;;;;23.38;14.80;;;3.50;99.90;;;;;;5072441;28;20400;-63
2023/01/24 05:11:20;;;;;;;24.30;15.25;;;3.50;99.90;;;;;;5078391;28;20045;-63
2023/01/24 05:13:45;;;;;;;23.40;15.50;;;3.60;99.90;;;;;;5089171;28;20477;-63
2023/01/24 05:16:12;;;;;;;23.75;15.60;;;3.50;99.90;;;;;;5097578;28;20067;-63
2023/01/24 05:18:38;;;;;;;27.58;16.30;;;3.50;99.90;;;;;;5075132;28;20016;-63
2023/01/24 05:21:09;;;;;;;26.20;17.60;;;3.50;99.90;;;;;;5074687;28;20046;-63
2023/01/24 05:23:35;;;;;;;27.17;17.63;;;3.50;99.90;;;;;;5094545;28;20066;-63
2023/01/24 05:26:01;;;;;;;24.17;16.50;;;3.50;99.90;;;;;;5095271;28;20469;-63
2023/01/24 05:28:27;;;;;;;21.85;15.50;;;3.50;99.90;;;;;;5092912;28;20449;-63
2023/01/24 05:30:56;;;;;;;22.50;14.95;;;3.50;99.90;;;;;;5091554;27;20023;-63
2023/01/24 05:33:22;;;;;;;24.58;16.33;;;3.50;99.90;;;;;;5091946;28;20024;-63
2023/01/24 05:35:47;;;;;;;23.88;16.77;;;3.50;99.90;;;;;;5091937;28;20035;-63
2023/01/24 05:38:13;;;;;;;24.33;17.00;;;3.50;99.90;;;;;;5091535;28;20026;-63
2023/01/24 05:40:38;;;;;;;25.77;17.02;;;3.50;99.90;;;;;;5091344;28;20093;-63
2023/01/24 05:43:05;;;;;;;25.55;17.17;;;3.40;99.90;;;;;;5092985;28;20067;-63
2023/01/24 05:45:31;;;;;;;26.05;18.45;;;3.50;99.90;;;;;;5073165;28;20057;-63
2023/01/24 05:47:56;;;;;;;22.83;16.52;;;3.40;99.90;;;;;;5088435;28;20127;-63
2023/01/24 05:50:22;;;;;;;25.33;16.40;;;3.40;99.90;;;;;;5092763;28;20602;-63
2023/01/24 05:52:47;;;;;;;25.60;16.85;;;3.40;99.90;;;;;;5089494;28;20035;-63
2023/01/24 05:55:13;;;;;;;27.48;18.50;;;3.40;99.90;;;;;;5094470;28;20024;-63
2023/01/24 05:57:38;;;;;;;30.02;20.13;;;3.40;99.90;;;;;;5093033;28;20082;-63
2023/01/24 06:00:05;;;;;;;31.35;19.08;;;3.30;99.90;;;;;;5092678;28;20555;-63
2023/01/24 06:02:30;;;;;;;29.77;19.45;;;3.30;99.90;;;;;;5073331;28;20554;-63
2023/01/24 06:04:56;;;;;;;31.45;19.45;;;3.30;99.90;;;;;;5073274;28;20399;-63
2023/01/24 06:07:21;;;;;;;28.27;18.73;;;3.30;99.90;;;;;;5088667;28;20493;-63
2023/01/24 06:09:47;;;;;;;29.58;19.77;;;3.30;99.90;;;;;;5093635;28;20097;-63
2023/01/24 06:12:12;;;;;;;32.53;21.10;;;3.30;99.90;;;;;;5073161;28;20038;-63
2023/01/24 06:14:38;;;;;;;28.70;19.23;;;3.30;99.90;;;;;;5088096;28;20126;-63
2023/01/24 06:17:03;;;;;;;27.25;17.95;;;3.30;99.90;;;;;;5088402;28;20031;-63
2023/01/24 06:19:29;;;;;;;28.73;19.60;;;3.30;99.90;;;;;;5108508;27;20124;-63
2023/01/24 06:22:03;;;;;;;26.73;18.17;;;3.30;99.90;;;;;;5091900;28;20149;-63
2023/01/24 06:24:29;;;;;;;30.67;20.95;;;3.30;99.90;;;;;;5092532;28;20022;-63
2023/01/24 06:26:55;;;;;;;29.40;19.65;;;3.30;99.90;;;;;;5087826;28;20020;-64
2023/01/24 06:29:21;;;;;;;30.20;19.58;;;3.30;99.90;;;;;;5088779;28;20019;-63
2023/01/24 06:31:56;;;;;;;29.38;19.75;;;3.30;99.90;;;;;;5102437;28;20024;-63
2023/01/24 06:34:45;;;;;;;32.15;21.05;;;3.30;99.90;;;;;;5089417;28;20046;-63
2023/01/24 06:37:29;;;;;;;32.95;21.50;;;3.30;99.90;;;;;;5091264;28;20024;-63
2023/01/24 06:39:56;;;;;;;30.17;19.55;;;3.20;99.90;;;;;;5078304;28;20133;-63
2023/01/24 06:42:22;;;;;;;31.63;20.88;;;3.20;99.90;;;;;;5111921;28;20096;-63
2023/01/24 06:44:48;;;;;;;28.48;20.00;;;3.20;99.90;;;;;;5111513;28;20015;-63
2023/01/24 06:47:14;;;;;;;27.92;19.05;;;3.20;99.90;;;;;;5083643;28;20031;-63
2023/01/24 06:49:40;;;;;;;30.90;21.48;;;3.20;99.90;;;;;;5086155;28;20070;-63
2023/01/24 06:52:07;;;;;;;30.38;20.25;;;3.20;99.90;;;;;;5102159;28;20063;-63
2023/01/24 06:54:34;;;;;;;29.40;20.50;;;3.20;99.90;;;;;;5085775;28;20772;-63
2023/01/24 06:57:00;;;;;;;31.35;20.33;;;3.20;99.90;;;;;;5101047;28;20035;-63
2023/01/24 06:59:25;;;;;;;31.67;21.67;;;3.10;99.90;;;;;;5091311;28;20491;-63
2023/01/24 07:01:51;;;;;;;32.80;22.50;;;3.10;99.90;;;;;;5100956;28;20028;-63
2023/01/24 07:04:17;;;;;;;33.35;21.90;;;3.10;99.90;;;;;;5110361;27;20027;-63
2023/01/24 07:06:42;;;;;;;31.23;19.90;;;3.10;99.90;;;;;;5108791;28;20068;-63
2023/01/24 07:09:08;;;;;;;29.10;18.77;;;3.10;99.90;;;;;;5094917;28;20477;-63
2023/01/24 07:11:34;;;;;;;32.58;20.15;;;3.10;99.90;;;;;;5108272;28;20028;-63
2023/01/24 07:14:00;;;;;;;28.05;19.27;;;3.10;99.90;;;;;;5104914;28;20499;-63
2023/01/24 07:16:25;;;;;;;30.15;20.58;;;3.20;99.90;;;;;;5073124;28;20052;-63
2023/01/24 07:18:51;;;;;;;29.42;19.67;;;3.20;99.90;;;;;;5104252;28;20024;-63
2023/01/24 07:21:17;;;;;;;28.55;19.20;;;3.20;99.90;;;;;;5102333;28;20023;-63
2023/01/24 07:23:48;;;;;;;27.42;17.80;;;3.20;99.90;;;;;;5110976;28;20095;-63
2023/01/24 07:26:14;;;;;;;30.88;20.45;;;3.30;99.90;;;;;;5079630;28;20025;-63
2023/01/24 07:28:41;;;;;;;34.70;22.80;;;3.20;99.90;;;;;;5109379;28;20050;-63
2023/01/24 07:31:09;;;;;;;34.58;22.55;;;3.20;99.90;;;;;;5096827;28;20024;-63
2023/01/24 07:33:35;;;;;;;30.98;20.13;;;3.20;99.90;;;;;;5107952;28;20099;-63
2023/01/24 07:36:00;;;;;;;32.05;20.50;;;3.10;99.90;;;;;;5096362;28;20099;-63
2023/01/24 07:38:26;;;;;;;35.28;22.15;;;3.10;99.90;;;;;;5090829;28;20013;-63
2023/01/24 07:40:52;;;;;;;30.75;20.23;;;3.10;99.90;;;;;;5103767;28;20020;-63
2023/01/24 07:43:19;;;;;;;35.00;22.02;;;3.10;99.90;;;;;;5093665;28;20025;-63
2023/01/24 07:45:45;;;;;;;32.67;21.98;;;3.10;99.90;;;;;;5098604;28;20035;-63
2023/01/24 07:48:11;;;;;;;31.80;20.58;;;3.10;99.90;;;;;;5094422;28;20473;-63
2023/01/24 07:50:36;;;;;;;30.40;21.27;;;3.10;99.90;;;;;;5126768;28;20020;-63
2023/01/24 07:53:02;;;;;;;34.70;21.27;;;3.10;99.90;;;;;;5092813;28;20054;-63
2023/01/24 07:55:28;;;;;;;33.92;22.48;;;3.10;99.90;;;;;;5101950;28;20470;-63
2023/01/24 07:58:01;;;;;;;30.60;20.70;;;3.00;99.90;;;;;;5117459;28;20024;-63
2023/01/24 08:00:28;;;;;;;33.80;21.20;;;3.00;99.90;;;;;;5090516;28;20027;-63
2023/01/24 08:02:53;;;;;;;31.40;20.67;;;3.00;99.90;;;;;;5077415;28;20111;-63
2023/01/24 08:05:19;;;;;;;31.15;20.30;;;3.00;99.90;;;;;;5090345;28;20095;-63
2023/01/24 08:07:44;;;;;;;34.03;20.70;;;3.00;99.90;;;;;;5106239;28;20119;-63
2023/01/24 08:10:10;;;;;;;28.88;19.52;;;3.10;99.90;;;;;;5106816;28;20030;-63
2023/01/24 08:12:36;;;;;;;30.35;20.45;;;3.10;99.90;;;;;;5104776;28;20020;-63
2023/01/24 08:15:02;;;;;;;34.17;22.67;;;3.10;99.90;;;;;;5106673;28;20052;-63
2023/01/24 08:17:27;;;;;;;32.95;21.25;;;3.10;99.90;;;;;;5108477;28;20065;-63
2023/01/24 08:19:53;;;;;;;34.17;21.75;;;3.10;99.90;;;;;;5077051;28;20608;-63
2023/01/24 08:22:18;;;;;;;33.00;21.13;;;3.10;99.90;;;;;;5091744;28;20028;-65
2023/01/24 08:24:44;;;;;;;34.08;23.00;;;3.00;99.90;;;;;;5105586;28;20058;-63
2023/01/24 08:27:10;;;;;;;34.83;22.13;;;3.00;99.90;;;;;;5103163;28;20016;-64
2023/01/24 08:29:36;;;;;;;35.25;22.90;;;3.00;99.90;;;;;;5091068;28;20035;-63
2023/01/24 08:32:01;;;;;;;33.40;22.65;;;3.00;99.90;;;;;;5109313;28;20117;-63
2023/01/24 08:34:26;;;;;;;36.45;23.75;;;3.00;99.90;;;;;;5104972;28;20028;-63
2023/01/24 08:36:52;;;;;;;35.33;22.42;;;3.00;99.90;;;;;;5085149;28;20024;-63
2023/01/24 08:39:18;;;;;;;34.33;23.20;;;3.00;99.90;;;;;;5106956;28;20028;-63
2023/01/24 08:41:45;;;;;;;33.58;22.02;;;3.00;99.90;;;;;;5106995;28;20422;-63
2023/01/24 08:44:11;;;;;;;31.85;20.88;;;3.00;99.90;;;;;;5075804;28;20020;-63
2023/01/24 08:46:37;;;;;;;30.38;20.02;;;3.00;99.90;;;;;;5098179;28;20488;-63
2023/01/24 08:49:03;;;;;;;34.03;22.52;;;3.00;99.90;;;;;;5102942;28;20089;-63
2023/01/24 08:51:28;;;;;;;35.60;23.33;;;3.00;99.90;;;;;;5107131;28;20020;-63
2023/01/24 08:53:54;;;;;;;32.50;21.02;;;3.00;99.90;;;;;;5094334;28;20035;-63
2023/01/24 08:56:20;;;;;;;33.00;20.65;;;3.00;99.90;;;;;;5100393;28;20035;-63
2023/01/24 08:58:45;;;;;;;33.58;21.83;;;3.10;99.90;;;;;;5100000;28;20030;-63
2023/01/24 09:01:11;;;;;;;32.17;20.95;;;3.10;99.90;;;;;;5101110;28;20030;-63
2023/01/24 09:03:37;;;;;;;31.48;20.98;;;3.00;99.90;;;;;;5099915;28;20030;-63
2023/01/24 09:06:03;;;;;;;27.40;17.40;;;3.00;99.90;;;;;;5093591;28;20028;-63
2023/01/24 09:08:29;;;;;;;24.25;16.55;;;3.10;99.90;;;;;;5093561;28;20110;-63
2023/01/24 09:10:58;;;;;;;25.67;16.73;;;3.10;99.90;;;;;;5075589;28;20111;-63
2023/01/24 09:13:24;;;;;;;25.52;16.35;;;3.20;99.90;;;;;;5075526;28;20031;-63
2023/01/24 09:15:49;;;;;;;31.92;20.35;;;3.20;99.90;;;;;;5093352;28;20416;-63
2023/01/24 09:18:16;;;;;;;31.70;19.98;;;3.20;99.90;;;;;;5093935;28;20048;-63
2023/01/24 09:20:42;;;;;;;29.98;19.90;;;3.20;99.90;;;;;;5109079;27;20033;-63
2023/01/24 09:23:09;;;;;;;32.95;20.85;;;3.20;99.90;;;;;;5093650;28;20020;-63
2023/01/24 09:25:35;;;;;;;29.88;20.20;;;3.20;99.90;;;;;;5103450;28;20032;-63
2023/01/24 09:28:00;;;;;;;33.80;21.40;;;3.20;99.90;;;;;;5092250;28;20015;-63
2023/01/24 09:30:26;;;;;;;28.67;19.25;;;3.20;99.90;;;;;;5094113;28;20393;-63
2023/01/24 09:32:51;;;;;;;27.05;18.80;;;3.20;99.90;;;;;;5093202;28;20461;-63
2023/01/24 09:35:17;;;;;;;31.35;20.25;;;3.20;99.90;;;;;;5093118;28;20070;-63
2023/01/24 09:37:44;;;;;;;29.88;19.48;;;3.20;99.90;;;;;;5096440;28;20015;-63
2023/01/24 09:40:27;;;;;;;29.15;19.35;;;3.20;99.90;;;;;;5122326;27;20057;-63
2023/01/24 09:43:21;;;;;;;29.88;19.70;;;3.20;99.90;;;;;;5099407;28;20012;-63
2023/01/24 09:46:04;;;;;;;26.98;17.75;;;3.20;99.90;;;;;;5086238;28;20031;-63
2023/01/24 09:48:32;;;;;;;29.38;19.20;;;3.20;99.90;;;;;;5074685;28;20020;-63
2023/01/24 09:51:03;;;;;;;28.60;18.95;;;3.20;99.90;;;;;;5105624;28;20469;-63
2023/01/24 09:53:34;;;;;;;27.35;17.38;;;3.20;99.90;;;;;;5086777;28;20021;-63
2023/01/24 09:56:01;;;;;;;30.55;18.98;;;3.20;99.90;;;;;;5107936;28;20027;-63
2023/01/24 09:58:43;;;;;;;26.23;17.65;;;3.20;99.90;;;;;;5084929;28;20024;-63
2023/01/24 10:01:12;;;;;;;25.75;18.17;;;3.30;99.90;;;;;;5109913;28;20031;-63
2023/01/24 10:03:39;;;;;;;26.08;18.80;;;3.30;99.90;;;;;;5098744;28;20048;-64
2023/01/24 10:06:24;;;;;;;25.73;17.10;;;3.30;99.90;;;;;;5105659;28;20024;-64
2023/01/24 10:09:25;;;;;;;27.38;16.38;;;3.30;99.90;;;;;;5104484;28;20058;-63
2023/01/24 10:12:16;;;;;;;26.13;17.58;;;3.40;99.90;;;;;;5095334;28;20050;-63
2023/01/24 10:15:29;;;;;;;25.63;18.08;;;3.40;99.90;;;;;;5111565;28;20150;-63
2023/01/24 10:18:04;;;;;;;26.67;17.92;;;3.40;99.90;;;;;;5020925;28;20596;-63
2023/01/24 10:20:35;;;;;;;26.27;17.90;;;3.50;99.90;;;;;;5048997;28;20107;-64
2023/01/24 10:23:21;;;;;;;29.92;19.90;;;3.50;99.90;;;;;;5073209;28;20032;-64
2023/01/24 10:26:01;;;;;;;24.73;17.83;;;3.50;99.90;;;;;;5092144;28;20019;-64
2023/01/24 10:28:38;;;;;;;28.35;19.25;;;3.50;99.90;;;;;;5110136;28;20011;-64
2023/01/24 10:31:31;;;;;;;26.05;16.88;;;3.50;99.90;;;;;;5097843;28;20073;-64
2023/01/24 10:34:14;;;;;;;24.73;17.08;;;3.50;99.90;;;;;;5092093;28;20063;-63
2023/01/24 10:36:54;;;;;;;27.25;18.08;;;3.50;99.90;;;;;;5098754;28;20051;-64
2023/01/24 10:39:20;;;;;;;;;;;3.50;99.90;;;;;;5096298;28;20453;-64
2023/01/24 10:41:45;;;;;;;24.70;16.42;;;3.40;99.90;;;;;;5105162;28;20583;-63
2023/01/24 10:44:42;;;;;;;26.52;17.70;;;3.40;99.90;;;;;;5118634;27;20771;-64
2023/01/24 10:47:46;;;;;;;23.98;16.33;;;3.50;99.90;;;;;;5064732;28;20477;-63
2023/01/24 10:50:15;;;;;;;24.70;16.15;;;3.40;99.90;;;;;;5073687;28;20500;-63
2023/01/24 10:52:42;;;;;;;24.88;16.67;;;3.40;99.90;;;;;;5091414;28;20024;-63
2023/01/24 10:55:34;;;;;;;23.77;16.38;;;3.40;99.90;;;;;;5082281;28;20031;-63
2023/01/24 10:58:16;;;;;;;26.48;17.40;;;3.50;99.90;;;;;;5103510;28;20031;-64
2023/01/24 11:00:42;;;;;;;28.33;18.08;;;3.40;99.90;;;;;;5107457;28;20035;-64
2023/01/24 11:03:38;;;;;;;22.63;15.55;;;3.40;99.90;;;;;;5101900;28;20024;-64
2023/01/24 11:06:04;;;;;;;22.10;15.10;;;3.50;99.90;;;;;;5065161;28;20040;-64
2023/01/24 11:08:37;;;;;;;23.13;15.82;;;3.50;99.90;;;;;;5105072;28;20507;-64
2023/01/24 11:11:20;;;;;;;25.90;17.50;;;3.50;99.90;;;;;;5069683;28;20023;-63
2023/01/24 11:13:45;;;;;;;21.88;15.63;;;3.50;99.90;;;;;;5092137;28;20019;-63
2023/01/24 11:16:17;;;;;;;21.35;15.15;;;3.50;99.90;;;;;;5109819;27;20382;-63
2023/01/24 11:18:57;;;;;;;21.60;15.23;;;3.60;99.90;;;;;;5087459;28;20032;-63
2023/01/24 11:21:23;;;;;;;18.40;13.85;;;3.70;99.90;;;;;;5088693;28;20036;-63
2023/01/24 11:24:14;;;;;;;20.98;14.30;;;3.70;99.90;;;;;;5090310;28;20062;-63
2023/01/24 11:26:57;;;;;;;19.25;13.43;;;3.70;99.90;;;;;;5080192;28;20165;-63
2023/01/24 11:29:23;;;;;;;19.17;13.35;;;3.80;99.90;;;;;;5079299;28;20027;-63
2023/01/24 11:32:17;;;;;;;21.40;14.85;;;3.80;99.90;;;;;;5094405;28;20024;-63
2023/01/24 11:35:10;;;;;;;19.48;13.98;;;3.80;99.90;;;;;;5098525;28;20058;-63
2023/01/24 11:37:45;;;;;;;22.23;15.98;;;3.80;99.90;;;;;;5108800;28;20032;-63
2023/01/24 11:40:44;;;;;;;21.50;14.93;;;3.80;99.90;;;;;;5096474;28;20472;-63
2023/01/24 11:43:31;;;;;;;21.17;14.77;;;3.80;99.90;;;;;;5087131;28;20118;-63
2023/01/24 11:46:15;;;;;;;20.67;14.88;;;3.80;99.90;;;;;;5094320;28;20042;-63
2023/01/24 11:48:46;;;;;;;20.10;13.82;;;3.80;99.90;;;;;;5100573;28;20034;-63
2023/01/24 11:51:27;;;;;;;23.23;16.65;;;3.80;99.90;;;;;;5107797;28;20016;-63
2023/01/24 11:54:13;;;;;;;20.80;14.07;;;3.80;99.90;;;;;;5101477;28;20532;-63
2023/01/24 11:56:46;;;;;;;20.35;13.80;;;3.80;99.90;;;;;;5090890;28;20142;-63
2023/01/24 11:59:30;;;;;;;18.58;13.68;;;3.80;99.90;;;;;;5107704;27;20024;-63
2023/01/24 12:02:14;;;;;;;19.20;13.20;;;3.80;99.90;;;;;;5097845;28;20469;-63
2023/01/24 12:04:49;;;;;;;19.92;13.57;;;3.80;99.90;;;;;;5085584;28;20026;-63
2023/01/24 12:07:29;;;;;;;21.05;14.95;;;3.80;99.90;;;;;;5109988;28;20489;-64
2023/01/24 12:10:04;;;;;;;19.50;12.40;;;3.90;99.90;;;;;;5097849;28;20031;-63
2023/01/24 12:12:41;;;;;;;19.23;14.30;;;3.90;99.90;;;;;;5094854;28;20030;-64
2023/01/24 12:15:16;;;;;;;18.63;13.45;;;3.90;99.90;;;;;;5110157;28;20058;-63
2023/01/24 12:18:15;;;;;;;17.63;12.07;;;3.80;99.90;;;;;;5110830;28;20023;-63
2023/01/24 12:20:57;;;;;;;17.23;11.87;;;3.90;99.90;;;;;;5095293;28;20035;-64
2023/01/24 12:23:40;;;;;;;19.05;13.98;;;3.90;99.90;;;;;;5077593;28;20111;-63
2023/01/24 12:26:16;;;;;;;21.73;14.27;;;4.00;99.90;;;;;;5097682;27;20670;-63
2023/01/24 12:29:03;;;;;;;18.15;12.75;;;3.90;99.90;;;;;;5085287;28;20039;-63
2023/01/24 12:31:47;;;;;;;17.63;12.05;;;3.90;99.90;;;;;;5111740;28;20019;-64
2023/01/24 12:34:26;;;;;;;17.67;12.95;;;3.90;99.90;;;;;;5108323;28;20058;-63
2023/01/24 12:37:00;;;;;;;18.98;13.10;;;3.80;99.90;;;;;;5111109;28;20019;-64
2023/01/24 12:39:43;;;;;;;18.40;12.57;;;3.70;99.90;;;;;;5112170;28;20065;-63
2023/01/24 12:42:32;;;;;;;13.95;10.27;;;3.70;99.90;;;;;;5111554;28;20016;-63
2023/01/24 12:45:04;;;;;;;17.95;12.60;;;3.80;99.90;;;;;;5102921;28;20511;-63
2023/01/24 12:47:36;;;;;;;19.90;12.13;;;3.90;99.90;;;;;;5098350;28;20502;-64
2023/01/24 12:50:44;;;;;;;17.20;11.25;;;3.90;99.90;;;;;;5079990;28;20019;-63
2023/01/24 12:53:19;;;;;;;15.30;10.75;;;3.90;99.90;;;;;;5070427;28;20046;-63
2023/01/24 12:55:56;;;;;;;13.48;9.82;;;3.90;99.90;;;;;;5100152;28;20078;-64
2023/01/24 12:58:27;;;;;;;16.52;10.70;;;4.00;99.90;;;;;;5121038;27;20047;-64
2023/01/24 13:01:10;;;;;;;13.85;9.80;;;4.10;99.90;;;;;;5108510;27;20031;-63
2023/01/24 13:04:03;;;;;;;13.00;9.43;;;4.10;99.90;;;;;;5094245;28;20019;-63
2023/01/24 13:07:00;;;;;;;13.45;9.60;;;4.10;99.90;;;;;;5101790;28;20020;-63
2023/01/24 13:09:34;;;;;;;12.85;9.30;;;4.10;99.90;;;;;;5090535;28;20027;-63
2023/01/24 13:12:04;;;;;;;15.68;10.88;;;4.10;99.90;;;;;;5106169;28;20393;-63
2023/01/24 13:14:29;;;;;;;16.87;11.67;;;4.00;99.90;;;;;;5103329;28;20110;-63
2023/01/24 13:17:22;;;;;;;15.75;10.77;;;4.00;99.90;;;;;;5103120;28;20354;-63
2023/01/24 13:20:12;;;;;;;17.90;11.90;;;4.00;99.90;;;;;;5080952;28;20031;-63
2023/01/24 13:23:29;;;;;;;14.63;10.68;;;3.90;99.90;;;;;;5103243;28;20023;-63
2023/01/24 13:26:01;;;;;;;16.88;12.10;;;3.90;99.90;;;;;;5062636;28;20080;-63
2023/01/24 13:28:45;;;;;;;16.50;12.10;;;3.90;99.90;;;;;;5093491;28;20016;-63
2023/01/24 13:31:27;;;;;;;14.60;10.38;;;3.90;99.90;;;;;;5091043;28;20027;-63
2023/01/24 13:33:58;;;;;;;15.25;11.25;;;3.80;99.90;;;;;;5112345;28;20015;-63